sensor_id;sensor_type;location;lat;lon;timestamp;P1;durP1;ratioP1;P2;durP2;ratioP2
58152;SDS011;43967;51.634;5.566;2023-07-20T00:02:26;5.97;;;2.00;;
58152;SDS011;43967;51.634;5.566;2023-07-20T00:07:48;5.63;;;1.95;;
58152;SDS011;43967;51.634;5.566;2023-07-20T00:13:10;5.20;;;1.83;;
58152;SDS011;43967;51.634;5.566;2023-07-20T00:18:32;6.27;;;1.60;;
58152;SDS011;43967;51.634;5.566;2023-07-20T00:23:53;6.00;;;1.85;;
58152;SDS011;43967;51.634;5.566;2023-07-20T00:29:15;5.47;;;1.70;;
58152;SDS011;43967;51.634;5.566;2023-07-20T00:34:40;5.40;;;1.60;;
58152;SDS011;43967;51.634;5.566;2023-07-20T00:40:01;5.85;;;1.77;;
58152;SDS011;43967;51.634;5.566;2023-07-20T00:45:22;5.70;;;1.80;;
58152;SDS011;43967;51.634;5.566;2023-07-20T00:50:45;5.70;;;1.57;;
58152;SDS011;43967;51.634;5.566;2023-07-20T00:56:07;5.97;;;1.75;;
58152;SDS011;43967;51.634;5.566;2023-07-20T01:01:29;5.40;;;1.90;;
58152;SDS011;43967;51.634;5.566;2023-07-20T01:07:07;5.77;;;1.67;;
58152;SDS011;43967;51.634;5.566;2023-07-20T01:12:41;5.40;;;1.73;;
58152;SDS011;43967;51.634;5.566;2023-07-20T01:18:03;6.35;;;1.92;;
58152;SDS011;43967;51.634;5.566;2023-07-20T01:23:35;5.05;;;1.48;;
58152;SDS011;43967;51.634;5.566;2023-07-20T01:29:17;5.00;;;1.60;;
58152;SDS011;43967;51.634;5.566;2023-07-20T01:35:01;5.10;;;1.60;;
58152;SDS011;43967;51.634;5.566;2023-07-20T01:40:24;5.70;;;1.90;;
58152;SDS011;43967;51.634;5.566;2023-07-20T01:45:46;5.80;;;1.87;;
58152;SDS011;43967;51.634;5.566;2023-07-20T01:51:08;5.03;;;1.60;;
58152;SDS011;43967;51.634;5.566;2023-07-20T01:56:29;5.32;;;1.70;;
58152;SDS011;43967;51.634;5.566;2023-07-20T02:01:50;5.53;;;1.80;;
58152;SDS011;43967;51.634;5.566;2023-07-20T02:07:13;5.73;;;1.80;;
58152;SDS011;43967;51.634;5.566;2023-07-20T02:12:34;5.22;;;1.90;;
58152;SDS011;43967;51.634;5.566;2023-07-20T02:17:55;5.60;;;1.80;;
58152;SDS011;43967;51.634;5.566;2023-07-20T02:23:17;5.87;;;1.87;;
58152;SDS011;43967;51.634;5.566;2023-07-20T02:28:38;5.65;;;1.65;;
58152;SDS011;43967;51.634;5.566;2023-07-20T02:33:59;6.03;;;1.90;;
58152;SDS011;43967;51.634;5.566;2023-07-20T02:39:20;5.17;;;1.60;;
58152;SDS011;43967;51.634;5.566;2023-07-20T02:44:42;5.50;;;1.80;;
58152;SDS011;43967;51.634;5.566;2023-07-20T02:50:05;6.72;;;1.67;;
58152;SDS011;43967;51.634;5.566;2023-07-20T02:55:28;6.03;;;1.70;;
58152;SDS011;43967;51.634;5.566;2023-07-20T03:00:49;5.70;;;1.80;;
58152;SDS011;43967;51.634;5.566;2023-07-20T03:06:10;5.85;;;1.58;;
58152;SDS011;43967;51.634;5.566;2023-07-20T03:11:32;5.82;;;1.92;;
58152;SDS011;43967;51.634;5.566;2023-07-20T03:16:56;6.70;;;2.03;;
58152;SDS011;43967;51.634;5.566;2023-07-20T03:22:17;5.85;;;1.80;;
58152;SDS011;43967;51.634;5.566;2023-07-20T03:27:39;5.20;;;1.60;;
58152;SDS011;43967;51.634;5.566;2023-07-20T03:33:00;5.60;;;1.90;;
58152;SDS011;43967;51.634;5.566;2023-07-20T03:38:22;5.00;;;1.50;;
58152;SDS011;43967;51.634;5.566;2023-07-20T03:43:43;5.25;;;1.60;;
58152;SDS011;43967;51.634;5.566;2023-07-20T03:49:05;5.63;;;1.73;;
58152;SDS011;43967;51.634;5.566;2023-07-20T03:54:26;5.87;;;2.20;;
58152;SDS011;43967;51.634;5.566;2023-07-20T03:59:47;4.93;;;1.60;;
58152;SDS011;43967;51.634;5.566;2023-07-20T04:05:09;7.30;;;1.85;;
58152;SDS011;43967;51.634;5.566;2023-07-20T04:10:31;5.80;;;1.60;;
58152;SDS011;43967;51.634;5.566;2023-07-20T04:15:52;5.65;;;1.65;;
58152;SDS011;43967;51.634;5.566;2023-07-20T04:21:13;4.90;;;1.70;;
58152;SDS011;43967;51.634;5.566;2023-07-20T04:26:35;5.57;;;1.70;;
58152;SDS011;43967;51.634;5.566;2023-07-20T04:31:58;5.75;;;1.63;;
58152;SDS011;43967;51.634;5.566;2023-07-20T04:37:20;6.35;;;1.65;;
58152;SDS011;43967;51.634;5.566;2023-07-20T04:42:41;5.53;;;1.77;;
58152;SDS011;43967;51.634;5.566;2023-07-20T04:48:03;6.10;;;1.87;;
58152;SDS011;43967;51.634;5.566;2023-07-20T04:53:26;4.80;;;1.40;;
58152;SDS011;43967;51.634;5.566;2023-07-20T04:58:48;5.30;;;1.77;;
58152;SDS011;43967;51.634;5.566;2023-07-20T05:04:10;5.00;;;1.40;;
58152;SDS011;43967;51.634;5.566;2023-07-20T05:09:31;5.38;;;1.77;;
58152;SDS011;43967;51.634;5.566;2023-07-20T05:14:52;5.85;;;2.08;;
58152;SDS011;43967;51.634;5.566;2023-07-20T05:20:14;5.60;;;1.90;;
58152;SDS011;43967;51.634;5.566;2023-07-20T05:25:35;5.25;;;1.80;;
58152;SDS011;43967;51.634;5.566;2023-07-20T05:30:57;5.50;;;1.90;;
58152;SDS011;43967;51.634;5.566;2023-07-20T05:36:18;6.10;;;2.13;;
58152;SDS011;43967;51.634;5.566;2023-07-20T05:41:39;6.40;;;2.40;;
58152;SDS011;43967;51.634;5.566;2023-07-20T05:47:00;5.47;;;1.80;;
58152;SDS011;43967;51.634;5.566;2023-07-20T05:52:22;5.60;;;1.58;;
58152;SDS011;43967;51.634;5.566;2023-07-20T05:57:43;5.67;;;1.80;;
58152;SDS011;43967;51.634;5.566;2023-07-20T06:03:04;5.68;;;1.70;;
58152;SDS011;43967;51.634;5.566;2023-07-20T06:08:25;4.95;;;1.50;;
58152;SDS011;43967;51.634;5.566;2023-07-20T06:13:47;5.67;;;1.73;;
58152;SDS011;43967;51.634;5.566;2023-07-20T06:19:08;5.43;;;1.48;;
58152;SDS011;43967;51.634;5.566;2023-07-20T06:24:29;5.55;;;1.80;;
58152;SDS011;43967;51.634;5.566;2023-07-20T06:29:51;5.67;;;1.80;;
58152;SDS011;43967;51.634;5.566;2023-07-20T06:35:12;6.20;;;1.77;;
58152;SDS011;43967;51.634;5.566;2023-07-20T06:40:34;5.50;;;1.73;;
58152;SDS011;43967;51.634;5.566;2023-07-20T06:45:55;5.18;;;1.60;;
58152;SDS011;43967;51.634;5.566;2023-07-20T06:51:16;5.53;;;1.50;;
58152;SDS011;43967;51.634;5.566;2023-07-20T06:56:38;5.70;;;1.70;;
58152;SDS011;43967;51.634;5.566;2023-07-20T07:01:59;4.90;;;1.55;;
58152;SDS011;43967;51.634;5.566;2023-07-20T07:07:20;6.93;;;2.07;;
58152;SDS011;43967;51.634;5.566;2023-07-20T07:12:42;5.53;;;1.77;;
58152;SDS011;43967;51.634;5.566;2023-07-20T07:18:03;5.43;;;1.75;;
58152;SDS011;43967;51.634;5.566;2023-07-20T07:23:24;6.93;;;1.83;;
58152;SDS011;43967;51.634;5.566;2023-07-20T07:28:46;5.93;;;1.70;;
58152;SDS011;43967;51.634;5.566;2023-07-20T07:34:07;5.20;;;1.60;;
58152;SDS011;43967;51.634;5.566;2023-07-20T07:39:28;4.93;;;1.73;;
58152;SDS011;43967;51.634;5.566;2023-07-20T07:44:49;4.77;;;1.53;;
58152;SDS011;43967;51.634;5.566;2023-07-20T07:50:11;5.22;;;1.50;;
58152;SDS011;43967;51.634;5.566;2023-07-20T07:55:32;5.38;;;1.73;;
58152;SDS011;43967;51.634;5.566;2023-07-20T08:00:53;5.63;;;1.60;;
58152;SDS011;43967;51.634;5.566;2023-07-20T08:06:14;5.10;;;1.50;;
58152;SDS011;43967;51.634;5.566;2023-07-20T08:11:36;5.43;;;1.77;;
58152;SDS011;43967;51.634;5.566;2023-07-20T08:17:01;5.23;;;1.80;;
58152;SDS011;43967;51.634;5.566;2023-07-20T08:22:22;4.90;;;1.50;;
58152;SDS011;43967;51.634;5.566;2023-07-20T08:27:43;5.43;;;1.85;;
58152;SDS011;43967;51.634;5.566;2023-07-20T08:33:04;4.78;;;1.60;;
58152;SDS011;43967;51.634;5.566;2023-07-20T08:38:26;5.20;;;1.43;;
58152;SDS011;43967;51.634;5.566;2023-07-20T08:43:47;4.45;;;1.40;;
58152;SDS011;43967;51.634;5.566;2023-07-20T08:49:09;4.90;;;1.50;;
58152;SDS011;43967;51.634;5.566;2023-07-20T08:54:32;4.83;;;1.57;;
58152;SDS011;43967;51.634;5.566;2023-07-20T08:59:55;4.93;;;1.60;;
58152;SDS011;43967;51.634;5.566;2023-07-20T09:05:17;4.80;;;1.42;;
58152;SDS011;43967;51.634;5.566;2023-07-20T09:10:39;5.23;;;1.50;;
58152;SDS011;43967;51.634;5.566;2023-07-20T09:16:00;4.80;;;1.57;;
58152;SDS011;43967;51.634;5.566;2023-07-20T09:21:22;4.97;;;1.58;;
58152;SDS011;43967;51.634;5.566;2023-07-20T09:26:44;5.75;;;1.77;;
58152;SDS011;43967;51.634;5.566;2023-07-20T09:32:06;5.17;;;1.43;;
58152;SDS011;43967;51.634;5.566;2023-07-20T09:37:28;5.07;;;1.60;;
58152;SDS011;43967;51.634;5.566;2023-07-20T09:42:49;4.80;;;1.20;;
58152;SDS011;43967;51.634;5.566;2023-07-20T09:48:13;4.70;;;1.50;;
58152;SDS011;43967;51.634;5.566;2023-07-20T09:53:35;4.88;;;1.63;;
58152;SDS011;43967;51.634;5.566;2023-07-20T09:58:58;4.85;;;1.42;;
58152;SDS011;43967;51.634;5.566;2023-07-20T10:04:19;4.70;;;1.73;;
58152;SDS011;43967;51.634;5.566;2023-07-20T10:09:43;5.17;;;1.60;;
58152;SDS011;43967;51.634;5.566;2023-07-20T10:15:11;4.43;;;1.42;;
58152;SDS011;43967;51.634;5.566;2023-07-20T10:20:52;4.75;;;1.55;;
58152;SDS011;43967;51.634;5.566;2023-07-20T10:26:15;5.00;;;1.60;;
58152;SDS011;43967;51.634;5.566;2023-07-20T10:31:37;4.30;;;1.35;;
58152;SDS011;43967;51.634;5.566;2023-07-20T10:36:59;4.75;;;1.58;;
58152;SDS011;43967;51.634;5.566;2023-07-20T10:42:20;4.97;;;1.70;;
58152;SDS011;43967;51.634;5.566;2023-07-20T10:47:45;4.45;;;1.30;;
58152;SDS011;43967;51.634;5.566;2023-07-20T10:53:25;5.00;;;1.58;;
58152;SDS011;43967;51.634;5.566;2023-07-20T10:58:46;4.60;;;1.50;;
58152;SDS011;43967;51.634;5.566;2023-07-20T11:04:08;4.80;;;1.43;;
58152;SDS011;43967;51.634;5.566;2023-07-20T11:09:33;4.65;;;1.35;;
58152;SDS011;43967;51.634;5.566;2023-07-20T11:14:56;4.82;;;1.50;;
58152;SDS011;43967;51.634;5.566;2023-07-20T11:20:18;4.27;;;1.27;;
58152;SDS011;43967;51.634;5.566;2023-07-20T11:25:40;4.55;;;1.40;;
58152;SDS011;43967;51.634;5.566;2023-07-20T11:31:01;5.18;;;1.60;;
58152;SDS011;43967;51.634;5.566;2023-07-20T11:36:22;4.60;;;1.60;;
58152;SDS011;43967;51.634;5.566;2023-07-20T11:41:46;4.63;;;1.60;;
58152;SDS011;43967;51.634;5.566;2023-07-20T11:47:09;4.40;;;1.40;;
58152;SDS011;43967;51.634;5.566;2023-07-20T11:52:31;5.13;;;1.73;;
58152;SDS011;43967;51.634;5.566;2023-07-20T11:58:03;4.40;;;1.20;;
58152;SDS011;43967;51.634;5.566;2023-07-20T12:03:25;4.75;;;1.50;;
58152;SDS011;43967;51.634;5.566;2023-07-20T12:08:47;5.00;;;1.42;;
58152;SDS011;43967;51.634;5.566;2023-07-20T12:14:09;4.30;;;1.40;;
58152;SDS011;43967;51.634;5.566;2023-07-20T12:19:30;4.70;;;1.55;;
58152;SDS011;43967;51.634;5.566;2023-07-20T12:24:52;4.88;;;1.52;;
58152;SDS011;43967;51.634;5.566;2023-07-20T12:30:14;4.77;;;1.30;;
58152;SDS011;43967;51.634;5.566;2023-07-20T12:35:35;4.20;;;1.30;;
58152;SDS011;43967;51.634;5.566;2023-07-20T12:40:57;4.22;;;1.20;;
58152;SDS011;43967;51.634;5.566;2023-07-20T12:46:18;4.10;;;1.30;;
58152;SDS011;43967;51.634;5.566;2023-07-20T12:51:40;4.70;;;1.40;;
58152;SDS011;43967;51.634;5.566;2023-07-20T12:57:01;5.00;;;1.50;;
58152;SDS011;43967;51.634;5.566;2023-07-20T13:02:22;4.43;;;1.40;;
58152;SDS011;43967;51.634;5.566;2023-07-20T13:07:44;4.27;;;1.10;;
58152;SDS011;43967;51.634;5.566;2023-07-20T13:13:05;4.40;;;1.48;;
58152;SDS011;43967;51.634;5.566;2023-07-20T13:18:27;4.50;;;1.20;;
58152;SDS011;43967;51.634;5.566;2023-07-20T13:23:48;4.80;;;1.40;;
58152;SDS011;43967;51.634;5.566;2023-07-20T13:29:09;4.78;;;1.40;;
58152;SDS011;43967;51.634;5.566;2023-07-20T13:34:31;4.82;;;1.42;;
58152;SDS011;43967;51.634;5.566;2023-07-20T13:39:52;4.77;;;1.57;;
58152;SDS011;43967;51.634;5.566;2023-07-20T13:45:13;4.13;;;1.23;;
58152;SDS011;43967;51.634;5.566;2023-07-20T13:50:35;4.82;;;1.30;;
58152;SDS011;43967;51.634;5.566;2023-07-20T13:55:56;4.28;;;1.55;;
58152;SDS011;43967;51.634;5.566;2023-07-20T14:01:17;4.33;;;1.43;;
58152;SDS011;43967;51.634;5.566;2023-07-20T14:06:39;4.57;;;1.60;;
58152;SDS011;43967;51.634;5.566;2023-07-20T14:12:04;5.10;;;1.58;;
58152;SDS011;43967;51.634;5.566;2023-07-20T14:17:26;4.50;;;1.40;;
58152;SDS011;43967;51.634;5.566;2023-07-20T14:22:47;4.60;;;1.35;;
58152;SDS011;43967;51.634;5.566;2023-07-20T14:28:08;4.78;;;1.45;;
58152;SDS011;43967;51.634;5.566;2023-07-20T14:33:29;4.43;;;1.40;;
58152;SDS011;43967;51.634;5.566;2023-07-20T14:38:51;4.73;;;1.63;;
58152;SDS011;43967;51.634;5.566;2023-07-20T14:44:12;4.60;;;1.55;;
58152;SDS011;43967;51.634;5.566;2023-07-20T14:49:33;5.38;;;1.60;;
58152;SDS011;43967;51.634;5.566;2023-07-20T14:54:55;5.00;;;1.40;;
58152;SDS011;43967;51.634;5.566;2023-07-20T15:00:16;4.90;;;1.55;;
58152;SDS011;43967;51.634;5.566;2023-07-20T15:05:38;7.35;;;1.55;;
58152;SDS011;43967;51.634;5.566;2023-07-20T15:11:00;6.00;;;1.60;;
58152;SDS011;43967;51.634;5.566;2023-07-20T15:16:21;5.30;;;1.65;;
58152;SDS011;43967;51.634;5.566;2023-07-20T15:21:44;4.97;;;1.48;;
58152;SDS011;43967;51.634;5.566;2023-07-20T15:27:05;5.87;;;1.60;;
58152;SDS011;43967;51.634;5.566;2023-07-20T15:32:27;8.50;;;2.33;;
58152;SDS011;43967;51.634;5.566;2023-07-20T15:37:48;7.53;;;2.47;;
58152;SDS011;43967;51.634;5.566;2023-07-20T15:43:11;7.80;;;2.22;;
58152;SDS011;43967;51.634;5.566;2023-07-20T15:48:32;8.93;;;1.87;;
58152;SDS011;43967;51.634;5.566;2023-07-20T15:53:53;6.35;;;1.63;;
58152;SDS011;43967;51.634;5.566;2023-07-20T15:59:15;5.32;;;1.80;;
58152;SDS011;43967;51.634;5.566;2023-07-20T16:04:37;5.90;;;1.67;;
58152;SDS011;43967;51.634;5.566;2023-07-20T16:09:59;5.60;;;1.70;;
58152;SDS011;43967;51.634;5.566;2023-07-20T16:15:20;7.60;;;1.70;;
58152;SDS011;43967;51.634;5.566;2023-07-20T16:20:42;5.60;;;1.87;;
58152;SDS011;43967;51.634;5.566;2023-07-20T16:26:04;6.40;;;2.30;;
58152;SDS011;43967;51.634;5.566;2023-07-20T16:31:25;7.22;;;1.92;;
58152;SDS011;43967;51.634;5.566;2023-07-20T16:36:47;7.00;;;1.85;;
58152;SDS011;43967;51.634;5.566;2023-07-20T16:42:08;6.33;;;2.00;;
58152;SDS011;43967;51.634;5.566;2023-07-20T16:47:29;6.68;;;2.60;;
58152;SDS011;43967;51.634;5.566;2023-07-20T16:52:53;6.70;;;2.38;;
58152;SDS011;43967;51.634;5.566;2023-07-20T16:58:14;7.40;;;2.77;;
58152;SDS011;43967;51.634;5.566;2023-07-20T17:03:36;7.32;;;2.80;;
58152;SDS011;43967;51.634;5.566;2023-07-20T17:08:57;7.95;;;2.70;;
58152;SDS011;43967;51.634;5.566;2023-07-20T17:14:18;8.07;;;3.03;;
58152;SDS011;43967;51.634;5.566;2023-07-20T17:19:40;9.03;;;4.43;;
58152;SDS011;43967;51.634;5.566;2023-07-20T17:25:01;8.40;;;4.65;;
58152;SDS011;43967;51.634;5.566;2023-07-20T17:30:22;8.13;;;4.75;;
58152;SDS011;43967;51.634;5.566;2023-07-20T17:35:44;9.00;;;4.57;;
58152;SDS011;43967;51.634;5.566;2023-07-20T17:41:05;9.57;;;5.32;;
58152;SDS011;43967;51.634;5.566;2023-07-20T17:46:26;7.97;;;4.72;;
58152;SDS011;43967;51.634;5.566;2023-07-20T17:51:47;7.80;;;5.10;;
58152;SDS011;43967;51.634;5.566;2023-07-20T17:57:09;8.45;;;4.47;;
58152;SDS011;43967;51.634;5.566;2023-07-20T18:02:30;7.50;;;4.10;;
58152;SDS011;43967;51.634;5.566;2023-07-20T18:07:51;7.57;;;3.30;;
58152;SDS011;43967;51.634;5.566;2023-07-20T18:13:13;7.37;;;3.53;;
58152;SDS011;43967;51.634;5.566;2023-07-20T18:18:34;7.28;;;3.45;;
58152;SDS011;43967;51.634;5.566;2023-07-20T18:23:55;7.70;;;3.63;;
58152;SDS011;43967;51.634;5.566;2023-07-20T18:29:17;7.70;;;3.43;;
58152;SDS011;43967;51.634;5.566;2023-07-20T18:34:38;7.00;;;3.35;;
58152;SDS011;43967;51.634;5.566;2023-07-20T18:40:00;7.38;;;3.33;;
58152;SDS011;43967;51.634;5.566;2023-07-20T18:45:22;6.70;;;3.27;;
58152;SDS011;43967;51.634;5.566;2023-07-20T18:50:43;8.23;;;3.47;;
58152;SDS011;43967;51.634;5.566;2023-07-20T18:56:04;7.50;;;3.70;;
58152;SDS011;43967;51.634;5.566;2023-07-20T19:01:26;7.17;;;4.00;;
58152;SDS011;43967;51.634;5.566;2023-07-20T19:06:47;9.10;;;4.10;;
58152;SDS011;43967;51.634;5.566;2023-07-20T19:12:08;8.75;;;4.78;;
58152;SDS011;43967;51.634;5.566;2023-07-20T19:17:30;8.52;;;4.40;;
58152;SDS011;43967;51.634;5.566;2023-07-20T19:22:52;6.97;;;3.50;;
58152;SDS011;43967;51.634;5.566;2023-07-20T19:28:13;7.60;;;4.20;;
58152;SDS011;43967;51.634;5.566;2023-07-20T19:33:34;8.18;;;4.28;;
58152;SDS011;43967;51.634;5.566;2023-07-20T19:38:56;7.93;;;4.40;;
58152;SDS011;43967;51.634;5.566;2023-07-20T19:44:17;8.75;;;4.50;;
58152;SDS011;43967;51.634;5.566;2023-07-20T19:49:38;10.13;;;5.30;;
58152;SDS011;43967;51.634;5.566;2023-07-20T19:55:00;9.53;;;5.70;;
58152;SDS011;43967;51.634;5.566;2023-07-20T20:00:21;7.87;;;4.50;;
58152;SDS011;43967;51.634;5.566;2023-07-20T20:05:43;7.97;;;4.68;;
58152;SDS011;43967;51.634;5.566;2023-07-20T20:11:04;8.35;;;4.85;;
58152;SDS011;43967;51.634;5.566;2023-07-20T20:16:27;8.43;;;4.47;;
58152;SDS011;43967;51.634;5.566;2023-07-20T20:21:48;9.02;;;5.10;;
58152;SDS011;43967;51.634;5.566;2023-07-20T20:27:10;7.00;;;3.88;;
58152;SDS011;43967;51.634;5.566;2023-07-20T20:32:31;6.70;;;2.27;;
58152;SDS011;43967;51.634;5.566;2023-07-20T20:37:53;6.15;;;2.53;;
58152;SDS011;43967;51.634;5.566;2023-07-20T20:43:14;6.93;;;2.05;;
58152;SDS011;43967;51.634;5.566;2023-07-20T20:48:36;6.27;;;2.27;;
58152;SDS011;43967;51.634;5.566;2023-07-20T20:53:57;6.50;;;2.43;;
58152;SDS011;43967;51.634;5.566;2023-07-20T20:59:19;5.40;;;2.00;;
58152;SDS011;43967;51.634;5.566;2023-07-20T21:04:40;7.95;;;2.30;;
58152;SDS011;43967;51.634;5.566;2023-07-20T21:10:01;5.87;;;1.93;;
58152;SDS011;43967;51.634;5.566;2023-07-20T21:15:23;5.60;;;1.70;;
58152;SDS011;43967;51.634;5.566;2023-07-20T21:20:44;6.88;;;2.08;;
58152;SDS011;43967;51.634;5.566;2023-07-20T21:26:05;7.40;;;3.40;;
58152;SDS011;43967;51.634;5.566;2023-07-20T21:31:26;6.38;;;2.70;;
58152;SDS011;43967;51.634;5.566;2023-07-20T21:36:48;6.30;;;2.38;;
58152;SDS011;43967;51.634;5.566;2023-07-20T21:42:09;5.80;;;2.17;;
58152;SDS011;43967;51.634;5.566;2023-07-20T21:47:31;6.63;;;2.10;;
58152;SDS011;43967;51.634;5.566;2023-07-20T21:52:52;6.38;;;2.05;;
58152;SDS011;43967;51.634;5.566;2023-07-20T21:58:13;9.10;;;1.80;;
58152;SDS011;43967;51.634;5.566;2023-07-20T22:03:35;5.80;;;1.80;;
58152;SDS011;43967;51.634;5.566;2023-07-20T22:08:56;6.40;;;1.90;;
58152;SDS011;43967;51.634;5.566;2023-07-20T22:14:17;5.40;;;1.95;;
58152;SDS011;43967;51.634;5.566;2023-07-20T22:19:39;5.37;;;1.90;;
58152;SDS011;43967;51.634;5.566;2023-07-20T22:25:00;5.93;;;2.00;;
58152;SDS011;43967;51.634;5.566;2023-07-20T22:30:22;10.30;;;2.40;;
58152;SDS011;43967;51.634;5.566;2023-07-20T22:35:43;5.37;;;1.70;;
58152;SDS011;43967;51.634;5.566;2023-07-20T22:41:04;5.60;;;2.10;;
58152;SDS011;43967;51.634;5.566;2023-07-20T22:46:26;6.70;;;2.22;;
58152;SDS011;43967;51.634;5.566;2023-07-20T22:51:47;5.50;;;1.70;;
58152;SDS011;43967;51.634;5.566;2023-07-20T22:57:08;5.97;;;1.70;;
58152;SDS011;43967;51.634;5.566;2023-07-20T23:02:29;5.43;;;2.00;;
58152;SDS011;43967;51.634;5.566;2023-07-20T23:07:51;5.75;;;1.73;;
58152;SDS011;43967;51.634;5.566;2023-07-20T23:13:12;6.07;;;1.93;;
58152;SDS011;43967;51.634;5.566;2023-07-20T23:18:34;5.35;;;1.77;;
58152;SDS011;43967;51.634;5.566;2023-07-20T23:23:56;5.30;;;1.70;;
58152;SDS011;43967;51.634;5.566;2023-07-20T23:29:17;5.30;;;1.80;;
58152;SDS011;43967;51.634;5.566;2023-07-20T23:34:38;5.80;;;2.13;;
58152;SDS011;43967;51.634;5.566;2023-07-20T23:40:00;5.60;;;1.90;;
58152;SDS011;43967;51.634;5.566;2023-07-20T23:45:21;5.85;;;2.03;;
58152;SDS011;43967;51.634;5.566;2023-07-20T23:50:42;5.37;;;1.70;;
58152;SDS011;43967;51.634;5.566;2023-07-20T23:56:04;5.72;;;2.08;;
